Time;durP1;ratioP1;P1;durP2;ratioP2;P2;SDS_P1;SDS_P2;PMS_P1;PMS_P2;Temp;Humidity;BMP_temperature;BMP_pressure;BME280_temperature;BME280_humidity;BME280_pressure;Samples;Min_cycle;Max_cycle;Signal;HPM_P1;HPM_P2
2023/07/10 00:00:58;;;;;;;9.10;8.23;;;;;;;;;;6262693;28;20190;-66
2023/07/10 00:03:59;;;;;;;9.77;8.87;;;;;;;;;;6257670;28;20194;-66
2023/07/10 00:07:00;;;;;;;9.40;8.27;;;;;;;;;;6259867;28;20182;-66
2023/07/10 00:10:01;;;;;;;9.73;8.80;;;;;;;;;;6251432;28;20198;-66
2023/07/10 00:13:02;;;;;;;10.63;8.87;;;;;;;;;;6261040;28;20225;-66
2023/07/10 00:16:03;;;;;;;9.53;8.53;;;;;;;;;;6249619;28;20177;-66
2023/07/10 00:19:10;;;;;;;10.23;9.10;;;;;;;;;;6255175;28;20207;-67
2023/07/10 00:22:11;;;;;;;8.70;7.90;;;;;;;;;;6273923;28;20193;-66
2023/07/10 00:25:17;;;;;;;9.77;8.77;;;;;;;;;;6253254;28;20197;-66
2023/07/10 00:28:20;;;;;;;11.00;8.70;;;;;;;;;;6274223;28;20234;-66
2023/07/10 00:31:21;;;;;;;10.10;8.53;;;;;;;;;;6265231;28;20207;-65
2023/07/10 00:34:25;;;;;;;9.93;8.93;;;;;;;;;;6257788;28;20224;-66
2023/07/10 00:37:26;;;;;;;10.03;9.10;;;;;;;;;;6266543;28;20182;-66
2023/07/10 00:40:28;;;;;;;12.23;11.03;;;;;;;;;;6254290;28;20189;-66
2023/07/10 00:43:32;;;;;;;9.93;9.03;;;;;;;;;;6258615;28;20201;-66
2023/07/10 00:46:39;;;;;;;9.93;8.93;;;;;;;;;;6273227;28;20272;-66
2023/07/10 00:49:53;;;;;;;10.03;9.03;;;;;;;;;;6260111;28;20187;-66
2023/07/10 00:52:56;;;;;;;11.90;9.60;;;;;;;;;;6258391;28;20209;-65
2023/07/10 00:56:00;;;;;;;9.77;8.83;;;;;;;;;;6275895;28;20178;-65
2023/07/10 00:59:19;;;;;;;9.00;8.20;;;;;;;;;;6252263;28;20190;-66
2023/07/10 01:02:22;;;;;;;9.97;8.50;;;;;;;;;;6267200;28;20182;-66
2023/07/10 01:05:25;;;;;;;9.40;8.50;;;;;;;;;;6269422;28;20185;-66
2023/07/10 01:08:27;;;;;;;10.70;9.03;;;;;;;;;;6262940;28;20192;-66
2023/07/10 01:11:28;;;;;;;11.37;8.70;;;;;;;;;;6252835;28;20207;-66
2023/07/10 01:14:34;;;;;;;8.83;7.93;;;;;;;;;;6268252;28;20320;-66
2023/07/10 01:17:36;;;;;;;9.70;8.87;;;;;;;;;;6243666;28;20183;-66
2023/07/10 01:20:40;;;;;;;9.83;8.50;;;;;;;;;;6268088;28;20182;-66
2023/07/10 01:23:42;;;;;;;9.83;8.83;;;;;;;;;;6257623;28;20198;-65
2023/07/10 01:26:43;;;;;;;9.70;8.77;;;;;;;;;;6247123;28;20242;-66
2023/07/10 01:29:47;;;;;;;9.37;8.57;;;;;;;;;;6256672;28;20243;-66
2023/07/10 01:32:49;;;;;;;10.47;9.43;;;;;;;;;;6260904;28;20237;-65
2023/07/10 01:35:52;;;;;;;10.43;9.37;;;;;;;;;;6268828;28;20274;-66
2023/07/10 01:39:05;;;;;;;10.13;8.87;;;;;;;;;;6253584;28;20204;-65
2023/07/10 01:42:06;;;;;;;9.57;8.67;;;;;;;;;;6263029;28;20223;-65
2023/07/10 01:45:12;;;;;;;9.77;8.87;;;;;;;;;;6264179;28;20186;-66
2023/07/10 01:48:14;;;;;;;9.37;8.23;;;;;;;;;;6255102;28;20194;-66
2023/07/10 01:51:15;;;;;;;9.10;8.20;;;;;;;;;;6269454;28;20255;-66
2023/07/10 01:54:17;;;;;;;9.40;8.53;;;;;;;;;;6253919;28;20225;-65
2023/07/10 01:57:23;;;;;;;9.07;8.23;;;;;;;;;;6243045;28;20186;-66
2023/07/10 02:00:24;;;;;;;10.07;8.73;;;;;;;;;;6237976;28;20241;-66
2023/07/10 02:03:25;;;;;;;10.10;9.13;;;;;;;;;;6282748;28;20196;-66
2023/07/10 02:06:26;;;;;;;10.10;9.13;;;;;;;;;;6251025;28;20190;-66
2023/07/10 02:09:28;;;;;;;9.33;8.47;;;;;;;;;;6239286;28;20195;-66
2023/07/10 02:12:29;;;;;;;9.37;8.47;;;;;;;;;;6250758;28;20301;-65
2023/07/10 02:15:30;;;;;;;10.47;9.57;;;;;;;;;;6288933;28;20314;-66
2023/07/10 02:18:31;;;;;;;9.60;8.70;;;;;;;;;;6254925;28;20281;-66
2023/07/10 02:21:32;;;;;;;9.57;8.67;;;;;;;;;;6265698;28;20189;-66
2023/07/10 02:24:33;;;;;;;10.13;9.17;;;;;;;;;;6263063;28;20190;-66
2023/07/10 02:27:34;;;;;;;9.43;8.53;;;;;;;;;;6287871;28;20332;-66
2023/07/10 02:30:37;;;;;;;10.10;9.10;;;;;;;;;;6258144;28;20190;-66
2023/07/10 02:33:38;;;;;;;10.43;9.47;;;;;;;;;;6272794;28;20211;-66
2023/07/10 02:36:39;;;;;;;10.50;9.37;;;;;;;;;;6240376;28;20197;-66
2023/07/10 02:39:40;;;;;;;10.93;9.87;;;;;;;;;;6250909;28;20187;-66
2023/07/10 02:42:41;;;;;;;10.90;9.80;;;;;;;;;;6249484;28;20197;-66
2023/07/10 02:45:43;;;;;;;9.23;8.37;;;;;;;;;;6249727;28;20197;-66
2023/07/10 02:48:44;;;;;;;8.83;8.03;;;;;;;;;;6256339;28;20201;-66
2023/07/10 02:51:45;;;;;;;10.93;9.40;;;;;;;;;;6253281;28;20209;-66
2023/07/10 02:54:46;;;;;;;10.77;9.07;;;;;;;;;;6254038;28;20200;-66
2023/07/10 02:57:47;;;;;;;10.03;9.03;;;;;;;;;;6250322;28;20186;-65
2023/07/10 03:00:55;;;;;;;9.93;9.00;;;;;;;;;;6262974;28;20259;-66
2023/07/10 03:03:56;;;;;;;10.30;9.20;;;;;;;;;;6273381;28;20193;-66
2023/07/10 03:06:57;;;;;;;12.10;8.70;;;;;;;;;;6245037;28;20193;-66
2023/07/10 03:09:58;;;;;;;10.57;9.53;;;;;;;;;;6249319;28;20228;-66
2023/07/10 03:12:59;;;;;;;9.83;9.00;;;;;;;;;;6247758;28;20258;-65
2023/07/10 03:16:04;;;;;;;11.30;10.30;;;;;;;;;;6247788;28;20190;-65
2023/07/10 03:19:05;;;;;;;9.87;8.90;;;;;;;;;;6263653;28;20228;-66
2023/07/10 03:22:07;;;;;;;10.00;9.00;;;;;;;;;;6238481;28;20198;-66
2023/07/10 03:25:08;;;;;;;10.70;9.60;;;;;;;;;;6271684;28;20208;-66
2023/07/10 03:28:09;;;;;;;9.83;8.93;;;;;;;;;;6242011;28;20256;-66
2023/07/10 03:31:10;;;;;;;11.07;9.30;;;;;;;;;;6239246;28;20308;-66
2023/07/10 03:34:14;;;;;;;9.90;9.00;;;;;;;;;;6264109;28;20186;-66
2023/07/10 03:37:15;;;;;;;10.47;9.57;;;;;;;;;;6265703;28;20178;-66
2023/07/10 03:40:17;;;;;;;10.67;9.57;;;;;;;;;;6256162;28;20190;-67
2023/07/10 03:43:18;;;;;;;10.37;9.37;;;;;;;;;;6255761;28;20190;-67
2023/07/10 03:46:19;;;;;;;11.90;10.40;;;;;;;;;;6249769;28;20190;-67
2023/07/10 03:49:20;;;;;;;10.63;9.53;;;;;;;;;;6252485;28;20243;-66
2023/07/10 03:52:21;;;;;;;9.27;8.33;;;;;;;;;;6255706;28;20236;-67
2023/07/10 03:55:22;;;;;;;10.60;9.60;;;;;;;;;;6268110;28;20243;-66
2023/07/10 03:58:24;;;;;;;10.63;9.63;;;;;;;;;;6248503;28;20257;-66
2023/07/10 04:01:25;;;;;;;10.97;9.87;;;;;;;;;;6253860;28;20277;-67
2023/07/10 04:04:26;;;;;;;11.63;9.30;;;;;;;;;;6249048;28;20276;-67
2023/07/10 04:07:27;;;;;;;10.57;9.47;;;;;;;;;;6235302;28;20282;-66
2023/07/10 04:10:28;;;;;;;10.43;9.53;;;;;;;;;;6246866;28;20200;-67
2023/07/10 04:13:30;;;;;;;11.37;10.27;;;;;;;;;;6253958;28;20201;-67
2023/07/10 04:16:31;;;;;;;11.50;10.40;;;;;;;;;;6254164;28;20190;-66
2023/07/10 04:19:32;;;;;;;10.37;9.37;;;;;;;;;;6248753;28;20196;-66
2023/07/10 04:22:33;;;;;;;10.23;9.33;;;;;;;;;;6271528;28;20202;-66
2023/07/10 04:25:36;;;;;;;10.70;9.70;;;;;;;;;;6254838;28;20201;-65
2023/07/10 04:28:37;;;;;;;10.70;9.77;;;;;;;;;;6265008;28;20186;-68
2023/07/10 04:31:38;;;;;;;10.77;9.83;;;;;;;;;;6236332;28;20279;-67
2023/07/10 04:34:39;;;;;;;10.23;9.23;;;;;;;;;;6247999;28;20286;-64
2023/07/10 04:37:40;;;;;;;10.73;9.63;;;;;;;;;;6233207;28;20244;-65
2023/07/10 04:40:50;;;;;;;12.00;10.83;;;;;;;;;;6242155;28;20198;-65
2023/07/10 04:43:52;;;;;;;10.00;9.00;;;;;;;;;;6271742;28;20182;-65
2023/07/10 04:46:53;;;;;;;11.17;10.07;;;;;;;;;;6252000;28;20289;-65
2023/07/10 04:49:54;;;;;;;11.50;10.50;;;;;;;;;;6260471;28;20194;-67
2023/07/10 04:52:55;;;;;;;10.60;9.63;;;;;;;;;;6249487;28;20229;-66
2023/07/10 04:55:56;;;;;;;10.83;9.83;;;;;;;;;;6265298;28;20220;-65
2023/07/10 04:58:58;;;;;;;11.87;10.67;;;;;;;;;;6270243;28;20182;-66
2023/07/10 05:01:59;;;;;;;11.03;9.70;;;;;;;;;;6283800;28;20201;-66
2023/07/10 05:05:00;;;;;;;11.57;10.20;;;;;;;;;;6258274;28;20188;-64
2023/07/10 05:08:02;;;;;;;12.00;10.90;;;;;;;;;;6258830;28;20197;-66
2023/07/10 05:11:03;;;;;;;11.90;10.70;;;;;;;;;;6259520;28;20201;-65
2023/07/10 05:14:04;;;;;;;11.13;10.13;;;;;;;;;;6274222;28;20195;-66
2023/07/10 05:17:05;;;;;;;11.17;10.17;;;;;;;;;;6248318;28;20193;-66
2023/07/10 05:20:06;;;;;;;12.13;10.93;;;;;;;;;;6248289;28;20194;-66
2023/07/10 05:23:07;;;;;;;11.37;10.17;;;;;;;;;;6249011;28;20197;-66
2023/07/10 05:26:10;;;;;;;11.27;10.10;;;;;;;;;;6246064;28;20257;-66
2023/07/10 05:29:11;;;;;;;11.53;10.47;;;;;;;;;;6274254;28;20194;-65
2023/07/10 05:32:12;;;;;;;10.53;9.47;;;;;;;;;;6267611;28;20263;-66
2023/07/10 05:35:13;;;;;;;11.57;10.47;;;;;;;;;;6246718;28;20194;-65
2023/07/10 05:38:14;;;;;;;11.20;10.20;;;;;;;;;;6255327;28;20197;-66
2023/07/10 05:41:16;;;;;;;12.40;10.73;;;;;;;;;;6256633;28;20193;-66
2023/07/10 05:44:17;;;;;;;12.07;10.93;;;;;;;;;;6264272;28;20229;-66
2023/07/10 05:47:18;;;;;;;11.80;10.60;;;;;;;;;;6253423;28;20189;-65
2023/07/10 05:50:19;;;;;;;11.27;10.23;;;;;;;;;;6256729;28;20192;-65
2023/07/10 05:53:21;;;;;;;12.13;10.87;;;;;;;;;;6266619;28;20209;-65
2023/07/10 05:56:23;;;;;;;12.53;11.23;;;;;;;;;;6269726;28;20185;-67
2023/07/10 05:59:24;;;;;;;12.10;10.33;;;;;;;;;;6254950;28;20237;-67
2023/07/10 06:02:25;;;;;;;13.00;11.20;;;;;;;;;;6270614;28;20200;-67
2023/07/10 06:05:26;;;;;;;12.77;11.47;;;;;;;;;;6250087;28;20277;-65
2023/07/10 06:08:28;;;;;;;12.17;10.83;;;;;;;;;;6261858;28;20269;-66
2023/07/10 06:11:29;;;;;;;11.77;10.53;;;;;;;;;;6255809;28;20210;-68
2023/07/10 06:14:31;;;;;;;12.10;11.00;;;;;;;;;;6265548;28;20178;-65
2023/07/10 06:17:32;;;;;;;11.87;10.67;;;;;;;;;;6250897;28;20269;-65
2023/07/10 06:20:33;;;;;;;11.20;10.10;;;;;;;;;;6271470;28;20183;-67
2023/07/10 06:23:34;;;;;;;14.57;10.93;;;;;;;;;;6248604;28;20195;-69
2023/07/10 06:26:35;;;;;;;12.47;10.47;;;;;;;;;;6255334;28;20245;-66
2023/07/10 06:29:36;;;;;;;11.30;10.30;;;;;;;;;;6265826;28;20201;-64
2023/07/10 06:32:37;;;;;;;11.77;10.57;;;;;;;;;;6253784;28;20239;-64
2023/07/10 06:35:38;;;;;;;13.80;10.80;;;;;;;;;;6248821;28;20277;-67
2023/07/10 06:38:39;;;;;;;12.23;11.03;;;;;;;;;;6250873;28;20281;-65
2023/07/10 06:41:40;;;;;;;12.77;11.03;;;;;;;;;;6251743;28;20190;-65
2023/07/10 06:44:41;;;;;;;12.07;10.87;;;;;;;;;;6289063;28;20181;-65
2023/07/10 06:47:44;;;;;;;11.30;10.33;;;;;;;;;;6259320;28;20189;-65
2023/07/10 06:50:52;;;;;;;13.23;11.10;;;;;;;;;;6259855;28;20268;-65
2023/07/10 06:53:53;;;;;;;11.67;10.50;;;;;;;;;;6258239;28;20225;-65
2023/07/10 06:56:54;;;;;;;11.43;10.33;;;;;;;;;;6255609;28;20189;-65
2023/07/10 06:59:55;;;;;;;13.90;10.43;;;;;;;;;;6256319;28;20228;-65
2023/07/10 07:02:56;;;;;;;11.00;10.03;;;;;;;;;;6261515;28;20186;-66
2023/07/10 07:05:57;;;;;;;10.77;9.80;;;;;;;;;;6245311;28;20197;-65
2023/07/10 07:08:58;;;;;;;13.23;9.90;;;;;;;;;;6252359;28;20190;-65
2023/07/10 07:11:59;;;;;;;10.87;9.80;;;;;;;;;;6247670;28;20206;-65
2023/07/10 07:15:01;;;;;;;12.07;10.03;;;;;;;;;;6249615;28;20197;-64
2023/07/10 07:18:03;;;;;;;11.17;9.83;;;;;;;;;;6248722;28;20320;-65
2023/07/10 07:21:05;;;;;;;11.30;10.20;;;;;;;;;;6258087;28;20201;-65
2023/07/10 07:24:06;;;;;;;12.07;10.30;;;;;;;;;;6249245;28;20182;-66
2023/07/10 07:27:07;;;;;;;12.83;10.23;;;;;;;;;;6233786;28;20246;-65
2023/07/10 07:30:10;;;;;;;10.57;9.40;;;;;;;;;;6253078;28;20283;-66
2023/07/10 07:33:11;;;;;;;12.93;9.63;;;;;;;;;;6250202;28;20217;-65
2023/07/10 07:36:12;;;;;;;10.87;9.77;;;;;;;;;;6249597;28;20281;-66
2023/07/10 07:39:15;;;;;;;10.23;9.23;;;;;;;;;;6261979;28;20213;-65
2023/07/10 07:42:16;;;;;;;12.23;9.87;;;;;;;;;;6273698;28;20225;-66
2023/07/10 07:45:17;;;;;;;10.20;9.23;;;;;;;;;;6236730;28;20191;-65
2023/07/10 07:48:18;;;;;;;10.53;9.00;;;;;;;;;;6272859;28;20235;-65
2023/07/10 07:51:19;;;;;;;9.90;8.90;;;;;;;;;;6251341;28;20224;-66
2023/07/10 07:54:20;;;;;;;10.70;9.17;;;;;;;;;;6260136;28;20181;-67
2023/07/10 07:57:22;;;;;;;10.67;9.67;;;;;;;;;;6243913;28;20290;-66
2023/07/10 08:00:23;;;;;;;9.53;8.63;;;;;;;;;;6238276;28;20251;-67
2023/07/10 08:03:24;;;;;;;10.00;9.00;;;;;;;;;;6252495;28;20194;-66
2023/07/10 08:06:30;;;;;;;9.53;8.53;;;;;;;;;;6246936;28;20190;-66
2023/07/10 08:09:31;;;;;;;12.17;9.33;;;;;;;;;;6251523;28;20225;-68
2023/07/10 08:12:32;;;;;;;10.57;8.57;;;;;;;;;;6245010;28;20249;-66
2023/07/10 08:15:33;;;;;;;9.93;8.13;;;;;;;;;;6266309;28;20177;-67
2023/07/10 08:18:34;;;;;;;13.57;9.00;;;;;;;;;;6242090;28;20200;-67
2023/07/10 08:21:35;;;;;;;10.40;9.07;;;;;;;;;;6268198;28;20198;-66
2023/07/10 08:24:36;;;;;;;8.87;8.07;;;;;;;;;;6277974;28;20197;-66
2023/07/10 08:27:37;;;;;;;9.87;7.60;;;;;;;;;;6253700;28;20230;-67
2023/07/10 08:30:38;;;;;;;8.97;7.57;;;;;;;;;;6251465;28;20190;-68
2023/07/10 08:33:39;;;;;;;10.30;7.77;;;;;;;;;;6248637;28;20245;-69
2023/07/10 08:36:40;;;;;;;9.10;8.20;;;;;;;;;;6278780;28;20192;-66
2023/07/10 08:39:42;;;;;;;9.60;8.70;;;;;;;;;;6266528;28;20190;-67
2023/07/10 08:42:43;;;;;;;9.27;7.90;;;;;;;;;;6255822;28;20193;-70
2023/07/10 08:45:45;;;;;;;8.67;7.87;;;;;;;;;;6267426;28;20198;-66
2023/07/10 08:48:50;;;;;;;8.40;7.60;;;;;;;;;;6260361;28;20214;-67
2023/07/10 08:52:12;;;;;;;9.43;7.43;;;;;;;;;;6265745;28;20301;-67
2023/07/10 08:55:14;;;;;;;9.47;7.83;;;;;;;;;;6252749;28;20191;-67
2023/07/10 08:58:20;;;;;;;9.07;8.17;;;;;;;;;;6251253;28;20190;-67
2023/07/10 09:01:28;;;;;;;9.50;8.60;;;;;;;;;;6263270;28;20183;-66
2023/07/10 09:04:30;;;;;;;9.77;8.53;;;;;;;;;;6248328;28;20233;-66
2023/07/10 09:07:36;;;;;;;9.20;8.30;;;;;;;;;;6253545;28;20193;-66
2023/07/10 09:10:37;;;;;;;9.37;8.37;;;;;;;;;;6260872;28;20194;-65
2023/07/10 09:13:46;;;;;;;8.50;7.63;;;;;;;;;;6250151;28;20230;-65
2023/07/10 09:16:48;;;;;;;8.90;8.00;;;;;;;;;;6248497;28;20241;-66
2023/07/10 09:19:52;;;;;;;8.47;7.67;;;;;;;;;;6250986;28;20194;-68
2023/07/10 09:22:57;;;;;;;9.10;8.20;;;;;;;;;;6272535;28;20190;-66
2023/07/10 09:26:05;;;;;;;9.00;8.10;;;;;;;;;;6256018;28;20266;-66
2023/07/10 09:29:14;;;;;;;9.97;7.70;;;;;;;;;;6250280;28;20195;-67
2023/07/10 09:32:19;;;;;;;9.10;8.20;;;;;;;;;;6264000;28;20233;-67
2023/07/10 09:35:20;;;;;;;8.53;7.80;;;;;;;;;;6236075;28;20191;-66
2023/07/10 09:38:22;;;;;;;8.83;8.07;;;;;;;;;;6244562;28;20190;-66
2023/07/10 09:41:28;;;;;;;9.13;8.23;;;;;;;;;;6258375;28;20194;-67
2023/07/10 09:44:36;;;;;;;8.80;7.90;;;;;;;;;;6254216;28;20179;-66
2023/07/10 09:47:41;;;;;;;8.73;7.17;;;;;;;;;;6265575;28;20266;-66
2023/07/10 09:50:44;;;;;;;10.07;7.33;;;;;;;;;;6252895;28;20190;-66
2023/07/10 09:53:49;;;;;;;7.93;7.07;;;;;;;;;;6259833;28;20209;-66
2023/07/10 09:56:52;;;;;;;8.00;7.10;;;;;;;;;;6264565;28;20336;-66
2023/07/10 09:59:54;;;;;;;7.67;6.97;;;;;;;;;;6249960;28;20186;-66
2023/07/10 10:02:56;;;;;;;7.43;6.70;;;;;;;;;;6254212;28;20204;-66
2023/07/10 10:05:59;;;;;;;12.47;7.53;;;;;;;;;;6256385;28;20183;-66
2023/07/10 10:09:04;;;;;;;8.57;7.03;;;;;;;;;;6259511;28;20190;-66
2023/07/10 10:12:13;;;;;;;7.33;6.60;;;;;;;;;;6253029;28;20297;-66
2023/07/10 10:15:23;;;;;;;7.83;7.17;;;;;;;;;;6263234;28;20190;-66
2023/07/10 10:18:32;;;;;;;8.23;7.53;;;;;;;;;;6262458;28;20175;-66
2023/07/10 10:21:33;;;;;;;9.13;7.90;;;;;;;;;;6254627;28;20182;-66
2023/07/10 10:24:34;;;;;;;9.23;8.33;;;;;;;;;;6245409;28;20221;-66
2023/07/10 10:27:43;;;;;;;9.43;8.40;;;;;;;;;;6245649;28;20259;-66
2023/07/10 10:30:48;;;;;;;12.93;9.87;;;;;;;;;;6264402;28;20474;-65
2023/07/10 10:34:00;;;;;;;10.37;9.27;;;;;;;;;;6256493;28;20209;-66
2023/07/10 10:37:14;;;;;;;9.97;9.07;;;;;;;;;;6254841;28;20183;-66
2023/07/10 10:40:21;;;;;;;9.73;8.73;;;;;;;;;;6265233;28;20187;-66
2023/07/10 10:43:25;;;;;;;9.10;8.30;;;;;;;;;;6251603;28;20213;-66
2023/07/10 10:46:34;;;;;;;9.60;8.73;;;;;;;;;;6258729;28;20199;-66
2023/07/10 10:49:39;;;;;;;9.77;8.77;;;;;;;;;;6262254;28;20288;-66
2023/07/10 10:52:55;;;;;;;10.03;9.03;;;;;;;;;;6254720;28;20241;-65
2023/07/10 10:56:02;;;;;;;10.17;9.07;;;;;;;;;;6255694;28;20198;-65
2023/07/10 10:59:26;;;;;;;10.10;9.17;;;;;;;;;;6247340;28;20186;-66
2023/07/10 11:02:36;;;;;;;9.37;8.57;;;;;;;;;;6251734;28;20183;-66
2023/07/10 11:05:39;;;;;;;9.67;8.77;;;;;;;;;;6259379;28;20186;-66
2023/07/10 11:08:44;;;;;;;9.30;8.33;;;;;;;;;;6259529;28;20183;-66
2023/07/10 11:11:45;;;;;;;9.70;8.73;;;;;;;;;;6261607;28;20218;-66
2023/07/10 11:14:47;;;;;;;8.93;7.50;;;20.10;83.40;;;;;;6245513;28;20229;-66
2023/07/10 11:17:53;;;;;;;8.17;7.40;;;-28.50;53.80;;;;;;6239737;28;20195;-65
2023/07/10 11:20:55;;;;;;;8.33;7.53;;;5.50;55.20;;;;;;6246370;28;20201;-65
2023/07/10 11:23:55;;;;;;;8.47;7.60;;;0.50;50.40;;;;;;6248058;28;20252;-65
2023/07/10 11:27:29;;;;;;;7.47;6.77;;;29.20;54.10;;;;;;6245703;28;20242;-65
2023/07/10 11:30:34;;;;;;;7.30;6.60;;;;;;;;;;6241986;28;20203;-65
2023/07/10 11:33:34;;;;;;;8.20;7.47;;;29.30;54.00;;;;;;6250148;28;20238;-66
2023/07/10 11:36:43;;;;;;;7.07;6.37;;;;;;;;;;6260356;28;20197;-67
2023/07/10 11:40:04;;;;;;;10.47;7.07;;;;;;;;;;6261237;28;20209;-66
2023/07/10 11:43:24;;;;;;;7.87;7.00;;;;;;;;;;6265542;28;20228;-69
2023/07/10 11:46:27;;;;;;;9.03;8.13;;;;;;;;;;6264355;28;20191;-67
2023/07/10 11:50:05;;;;;;;8.33;6.67;;;;;;;;;;6248772;28;20277;-66
2023/07/10 11:53:15;;;;;;;7.87;7.07;;;;;;;;;;6261548;28;20205;-66
2023/07/10 11:56:16;;;;;;;7.37;6.53;;;;;;;;;;6247557;28;20183;-66
2023/07/10 11:59:21;;;;;;;7.67;6.90;;;29.60;50.70;;;;;;6249391;28;20218;-67
2023/07/10 12:02:38;;;;;;;7.37;6.73;;;;;;;;;;6247833;28;20201;-66
2023/07/10 12:05:39;;;;;;;7.13;6.33;;;31.10;51.00;;;;;;6253970;28;20202;-66
2023/07/10 12:08:39;;;;;;;7.57;6.67;;;30.80;45.70;;;;;;6239351;28;20194;-66
2023/07/10 12:11:40;;;;;;;8.10;7.20;;;30.90;48.60;;;;;;6252232;28;22156;-66
2023/07/10 12:14:41;;;;;;;6.50;5.97;;;31.20;45.00;;;;;;6249376;28;20185;-66
2023/07/10 12:17:42;;;;;;;7.87;6.17;;;31.60;46.30;;;;;;6232014;28;20182;-66
2023/07/10 12:20:43;;;;;;;6.30;5.70;;;;;;;;;;6286638;28;20302;-66
2023/07/10 12:24:04;;;;;;;9.90;6.13;;;32.50;46.20;;;;;;6253693;28;20239;-66
2023/07/10 12:27:04;;;;;;;7.23;5.87;;;32.90;42.20;;;;;;6231592;28;20231;-65
2023/07/10 12:30:28;;;;;;;6.10;5.50;;;33.40;39.30;;;;;;6244719;28;20208;-66
2023/07/10 12:33:41;;;;;;;8.17;5.90;;;33.60;41.20;;;;;;6281069;28;20214;-66
2023/07/10 12:36:41;;;;;;;6.80;6.10;;;33.80;39.10;;;;;;6258788;28;20225;-66
2023/07/10 12:39:47;;;;;;;6.90;6.17;;;;;;;;;;6231507;28;20204;-67
2023/07/10 12:42:48;;;;;;;7.03;6.10;;;34.30;41.20;;;;;;6266178;28;20193;-64
2023/07/10 12:45:57;;;;;;;5.93;5.43;;;34.50;40.30;;;;;;6288081;28;20197;-64
2023/07/10 12:49:13;;;;;;;7.73;6.60;;;34.90;39.90;;;;;;6239184;28;20198;-64
2023/07/10 12:52:14;;;;;;;7.07;6.47;;;35.40;38.30;;;;;;6257147;28;20207;-64
2023/07/10 12:55:17;;;;;;;6.90;6.20;;;35.70;40.00;;;;;;6259322;28;20217;-64
2023/07/10 12:58:18;;;;;;;7.03;6.10;;;35.60;42.20;;;;;;6251592;28;20249;-64
2023/07/10 13:01:29;;;;;;;7.33;6.63;;;35.60;40.50;;;;;;6266290;28;20193;-66
2023/07/10 13:04:37;;;;;;;7.27;6.60;;;35.50;42.10;;;;;;6252002;28;20195;-66
2023/07/10 13:07:39;;;;;;;6.73;6.10;;;35.40;41.50;;;;;;6268115;28;20189;-65
2023/07/10 13:10:42;;;;;;;7.33;6.63;;;35.20;44.20;;;;;;6263821;28;20195;-66
2023/07/10 13:13:43;;;;;;;7.67;7.00;;;35.00;45.20;;;;;;6264290;28;20232;-65
2023/07/10 13:16:44;;;;;;;6.90;6.30;;;34.60;45.30;;;;;;6281308;28;20182;-65
2023/07/10 13:19:45;;;;;;;6.90;6.20;;;34.20;43.20;;;;;;6266292;28;20203;-66
2023/07/10 13:22:46;;;;;;;6.83;6.23;;;;;;;;;;6276343;28;20197;-67
2023/07/10 13:25:47;;;;;;;7.40;6.07;;;;;;;;;;6248252;28;20234;-67
2023/07/10 13:28:49;;;;;;;10.47;6.87;;;;;;;;;;6251243;28;20208;-66
2023/07/10 13:31:50;;;;;;;8.30;7.10;;;;;;;;;;6251347;28;20229;-66
2023/07/10 13:34:51;;;;;;;7.97;6.40;;;;;;;;;;6261121;28;20190;-66
2023/07/10 13:37:52;;;;;;;6.87;6.13;;;;;;;;;;6246357;28;20186;-67
2023/07/10 13:40:53;;;;;;;6.40;5.70;;;;;;;;;;6267904;28;20201;-67
2023/07/10 13:43:54;;;;;;;7.37;6.03;;;;;;;;;;6243860;28;20194;-66
2023/07/10 13:46:55;;;;;;;7.83;6.30;;;;;;;;;;6272535;28;20189;-67
2023/07/10 13:49:58;;;;;;;8.03;5.90;;;;;;;;;;6253235;28;20217;-67
2023/07/10 13:53:00;;;;;;;6.70;6.00;;;;;;;;;;6252107;28;20206;-67
2023/07/10 13:56:00;;;;;;;6.30;5.70;;;32.30;42.70;;;;;;6233704;28;20201;-67
2023/07/10 13:59:02;;;;;;;6.20;5.70;;;32.00;42.40;;;;;;6245946;28;20205;-67
2023/07/10 14:02:22;;;;;;;6.60;6.00;;;31.90;44.80;;;;;;6253490;28;20290;-66
2023/07/10 14:05:23;;;;;;;7.40;6.47;;;31.60;46.20;;;;;;6252943;28;20194;-70
2023/07/10 14:08:30;;;;;;;6.47;5.87;;;31.50;46.20;;;;;;6262374;28;20187;-68
2023/07/10 14:11:30;;;;;;;6.23;5.63;;;31.30;46.60;;;;;;6258848;28;20189;-68
2023/07/10 14:14:31;;;;;;;6.30;5.57;;;31.10;44.20;;;;;;6237196;28;20187;-68
2023/07/10 14:17:33;;;;;;;7.23;5.47;;;31.00;44.40;;;;;;6248311;28;20187;-68
2023/07/10 14:20:34;;;;;;;6.63;5.87;;;30.90;43.10;;;;;;6256171;28;20259;-68
2023/07/10 14:23:35;;;;;;;6.47;5.77;;;30.80;41.20;;;;;;6246502;28;20206;-68
2023/07/10 14:26:35;;;;;;;6.47;5.80;;;30.70;41.30;;;;;;6251272;28;20240;-68
2023/07/10 14:29:36;;;;;;;6.77;5.93;;;30.70;40.60;;;;;;6270135;28;20204;-68
2023/07/10 14:32:37;;;;;;;6.83;6.13;;;30.60;41.80;;;;;;6256715;28;20206;-68
2023/07/10 14:35:40;;;;;;;7.97;5.30;;;30.50;43.60;;;;;;6249587;28;20212;-69
2023/07/10 14:38:41;;;;;;;10.07;4.43;;;30.40;43.10;;;;;;6256788;28;20281;-68
2023/07/10 14:41:42;;;;;;;4.37;3.10;;;;;;;;;;6248374;28;20198;-68
2023/07/10 14:44:43;;;;;;;6.13;3.37;;;;;;;;;;6239681;28;20182;-68
2023/07/10 14:47:45;;;;;;;3.00;2.70;;;;;;;;;;6259371;28;20170;-68
2023/07/10 14:50:47;;;;;;;2.07;1.80;;;;;;;;;;6286133;28;20277;-67
2023/07/10 14:53:48;;;;;;;3.97;2.23;;;;;;;;;;6250287;28;20210;-66
2023/07/10 14:56:49;;;;;;;5.63;4.13;;;;;;;;;;6268528;28;20213;-66
2023/07/10 14:59:50;;;;;;;5.30;4.80;;;;;;;;;;6265962;28;20187;-67
2023/07/10 15:02:52;;;;;;;4.93;4.43;;;;;;;;;;6261267;28;20249;-67
2023/07/10 15:05:56;;;;;;;5.10;4.43;;;;;;;;;;6244438;28;20273;-69
2023/07/10 15:08:57;;;;;;;3.90;3.60;;;;;;;;;;6266843;28;20201;-68
2023/07/10 15:11:58;;;;;;;3.03;2.60;;;;;;;;;;6244597;28;20211;-65
2023/07/10 15:14:59;;;;;;;5.67;3.27;;;;;;;;;;6264911;28;20196;-65
2023/07/10 15:18:01;;;;;;;7.53;3.90;;;;;;;;;;6242177;28;20191;-65
2023/07/10 15:21:02;;;;;;;5.63;3.90;;;;;;;;;;6249168;28;20206;-65
2023/07/10 15:24:03;;;;;;;3.47;2.67;;;;;;;;;;6261891;28;20190;-66
2023/07/10 15:27:04;;;;;;;3.77;2.27;;;;;;;;;;6249091;28;20238;-65
2023/07/10 15:30:05;;;;;;;7.30;2.30;;;;;;;;;;6241446;28;20209;-65
2023/07/10 15:33:10;;;;;;;4.40;2.80;;;;;;;;;;6263184;28;20245;-65
2023/07/10 15:36:18;;;;;;;2.80;2.57;;;;;;;;;;6249797;28;20193;-65
2023/07/10 15:39:19;;;;;;;4.23;2.90;;;;;;;;;;6247500;28;20194;-66
2023/07/10 15:42:20;;;;;;;3.00;2.80;;;;;;;;;;6244390;28;20190;-65
2023/07/10 15:45:22;;;;;;;7.00;3.03;;;;;;;;;;6267997;28;20189;-66
2023/07/10 15:48:23;;;;;;;4.07;3.00;;;;;;;;;;6248414;28;20201;-65
2023/07/10 15:51:26;;;;;;;3.73;2.63;;;;;;;;;;6243537;28;20209;-66
2023/07/10 15:54:27;;;;;;;3.23;2.70;;;;;;;;;;6261139;28;20205;-66
2023/07/10 15:57:28;;;;;;;3.10;2.80;;;;;;;;;;6244127;28;20198;-65
2023/07/10 16:00:36;;;;;;;3.93;3.10;;;;;;;;;;6239149;28;20217;-65
2023/07/10 16:03:37;;;;;;;4.73;3.27;;;;;;;;;;6278357;28;20273;-65
2023/07/10 16:06:38;;;;;;;4.20;3.10;;;;;;;;;;6265143;28;20285;-66
2023/07/10 16:09:39;;;;;;;3.67;3.10;;;;;;;;;;6246881;28;20220;-66
2023/07/10 16:12:41;;;;;;;3.83;2.90;;;;;;;;;;6247778;28;20205;-65
2023/07/10 16:15:42;;;;;;;4.80;3.13;;;;;;;;;;6255914;28;20206;-66
2023/07/10 16:18:43;;;;;;;5.83;3.50;;;;;;;;;;6254661;28;20284;-66
2023/07/10 16:21:46;;;;;;;3.73;3.33;;;;;;;;;;6251368;28;20189;-65
2023/07/10 16:24:47;;;;;;;4.17;3.23;;;;;;;;;;6257509;28;20194;-66
2023/07/10 16:27:48;;;;;;;3.57;3.27;;;;;;;;;;6246744;28;20226;-66
2023/07/10 16:30:49;;;;;;;3.50;3.20;;;;;;;;;;6237028;28;20241;-66
2023/07/10 16:33:50;;;;;;;3.80;3.30;;;;;;;;;;6258950;28;20198;-65
2023/07/10 16:36:51;;;;;;;3.53;3.23;;;;;;;;;;6238404;28;20264;-66
2023/07/10 16:39:52;;;;;;;3.67;2.90;;;;;;;;;;6246575;28;20284;-66
2023/07/10 16:42:55;;;;;;;3.57;3.27;;;;;;;;;;6271547;28;20191;-66
2023/07/10 16:45:56;;;;;;;3.97;3.53;;;;;;;;;;6265470;28;20243;-66
2023/07/10 16:48:57;;;;;;;3.87;3.47;;;;;;;;;;6249797;28;20193;-66
2023/07/10 16:51:58;;;;;;;4.20;3.20;;;;;;;;;;6257325;28;20423;-65
2023/07/10 16:55:00;;;;;;;4.87;3.60;;;;;;;;;;6246080;28;20196;-66
2023/07/10 16:58:01;;;;;;;4.57;3.57;;;;;;;;;;6245973;28;20190;-66
2023/07/10 17:01:03;;;;;;;3.20;2.90;;;;;;;;;;6257910;28;20186;-66
2023/07/10 17:04:06;;;;;;;5.30;3.70;;;;;;;;;;6252949;28;20198;-66
2023/07/10 17:07:09;;;;;;;4.70;3.40;;;;;;;;;;6265420;28;20204;-66
2023/07/10 17:10:13;;;;;;;5.00;3.63;;;;;;;;;;6272674;28;20242;-65
2023/07/10 17:13:15;;;;;;;4.00;3.50;;;;;;;;;;6270666;28;20213;-65
2023/07/10 17:16:16;;;;;;;3.70;3.37;;;;;;;;;;6256907;28;20175;-66
2023/07/10 17:19:17;;;;;;;3.93;3.43;;;;;;;;;;6268686;28;20186;-65
2023/07/10 17:22:24;;;;;;;4.13;3.73;;;;;;;;;;6267959;28;20223;-65
2023/07/10 17:25:25;;;;;;;4.27;3.87;;;;;;;;;;6256237;28;20194;-66
2023/07/10 17:28:28;;;;;;;4.03;3.57;;;;;;;;;;6244271;28;20191;-65
2023/07/10 17:31:38;;;;;;;3.90;3.53;;;;;;;;;;6263537;28;20183;-66
2023/07/10 17:34:39;;;;;;;4.23;3.83;;;;;;;;;;6248940;28;20190;-66
2023/07/10 17:37:40;;;;;;;5.57;3.80;;;;;;;;;;6269400;28;20187;-66
2023/07/10 17:40:41;;;;;;;3.87;3.57;;;;;;;;;;6264187;28;20182;-65
2023/07/10 17:43:42;;;;;;;4.00;3.70;;;;;;;;;;6251317;28;20194;-65
2023/07/10 17:46:43;;;;;;;5.67;3.70;;;;;;;;;;6264794;28;20197;-66